Time;durP1;ratioP1;P1;durP2;ratioP2;P2;SDS_P1;SDS_P2;PMS_P1;PMS_P2;Temp;Humidity;BMP_temperature;BMP_pressure;BME280_temperature;BME280_humidity;BME280_pressure;Samples;Min_cycle;Max_cycle;Signal;HPM_P1;HPM_P2
2023/09/03 00:00:40;;;;;;;5.53;4.70;;;;;;;15.94;78.49;102709.34;7409646;19;20008;-89
2023/09/03 00:03:08;;;;;;;;;;;;;;;15.70;80.03;102726.47;7410827;19;20270;-88
2023/09/03 00:05:39;;;;;;;6.45;3.85;;;;;;;15.97;78.14;102735.34;7409206;19;19926;-88
2023/09/03 00:08:08;;;;;;;7.82;4.72;;;;;;;16.02;77.67;102728.38;7411247;19;19936;-89
2023/09/03 00:10:37;;;;;;;6.57;5.15;;;;;;;16.03;78.02;102721.94;7410787;19;19923;-90
2023/09/03 00:13:06;;;;;;;9.82;5.00;;;;;;;16.01;78.36;102721.22;7411941;19;19949;-89
2023/09/03 00:15:39;;;;;;;8.02;5.10;;;;;;;15.95;77.91;102711.06;7413091;19;19923;-89
2023/09/03 00:18:08;;;;;;;7.90;4.97;;;;;;;15.87;78.74;102700.16;7414323;19;19929;-89
2023/09/03 00:20:39;;;;;;;6.15;4.65;;;;;;;15.82;78.82;102699.81;7409993;19;19946;-88
2023/09/03 00:23:08;;;;;;;6.70;4.70;;;;;;;15.75;78.68;102679.75;7412410;19;19918;-88
2023/09/03 00:25:38;;;;;;;8.02;5.03;;;;;;;15.70;79.22;102688.41;7409146;19;19918;-88
2023/09/03 00:28:07;;;;;;;7.82;5.28;;;;;;;15.65;79.67;102693.50;7409459;19;19998;-87
2023/09/03 00:30:35;;;;;;;9.30;5.25;;;;;;;15.64;79.88;102701.81;7409009;19;20402;-87
2023/09/03 00:33:27;;;;;;;6.97;5.55;;;;;;;15.60;79.76;102711.31;7407350;19;19970;-88
2023/09/03 00:36:00;;;;;;;7.10;5.43;;;;;;;15.55;79.94;102716.38;7408671;19;19929;-88
2023/09/03 00:38:28;;;;;;;7.53;5.85;;;;;;;15.53;80.33;102729.28;7409149;19;20347;-88
2023/09/03 00:40:57;;;;;;;7.97;5.60;;;;;;;15.58;79.28;102732.34;7408192;19;19923;-88
2023/09/03 00:43:26;;;;;;;6.95;5.05;;;;;;;15.65;78.99;102722.53;7409131;19;19919;-87
2023/09/03 00:45:55;;;;;;;6.43;5.43;;;;;;;15.67;78.99;102737.63;7410085;19;19926;-88
2023/09/03 00:48:28;;;;;;;6.57;5.30;;;;;;;15.70;78.78;102734.63;7411700;19;19923;-88
2023/09/03 00:51:04;;;;;;;8.77;5.75;;;;;;;15.66;79.81;102738.66;7417704;19;19910;-87
2023/09/03 00:53:33;;;;;;;8.13;5.82;;;;;;;15.68;79.07;102738.50;7413096;19;20016;-88
2023/09/03 00:56:02;;;;;;;6.43;5.22;;;;;;;15.66;79.34;102726.97;7413026;19;19923;-87
2023/09/03 00:58:31;;;;;;;6.95;5.30;;;;;;;15.62;79.37;102725.59;7411042;19;20336;-88
2023/09/03 01:01:00;;;;;;;7.55;5.35;;;;;;;15.61;79.06;102734.75;7407331;19;19945;-87
2023/09/03 01:03:29;;;;;;;8.82;5.75;;;;;;;15.60;79.23;102741.19;7408563;19;20373;-88
2023/09/03 01:06:20;;;;;;;8.35;6.00;;;;;;;15.61;79.52;102738.31;7407426;19;19982;-87
2023/09/03 01:08:48;;;;;;;6.22;5.00;;;;;;;15.59;79.32;102726.75;7406206;19;19923;-88
2023/09/03 01:11:30;;;;;;;8.43;5.45;;;;;;;15.55;79.60;102725.38;7406839;19;19927;-89
2023/09/03 01:14:09;;;;;;;8.38;6.05;;;;;;;15.53;79.99;102722.00;7406945;19;20252;-89
2023/09/03 01:16:48;;;;;;;9.52;6.68;;;;;;;15.49;80.65;102719.72;7406987;19;20340;-89
2023/09/03 01:19:51;;;;;;;7.60;6.30;;;;;;;15.38;81.34;102715.44;7407183;19;19918;-89
2023/09/03 01:22:34;;;;;;;9.00;6.72;;;;;;;15.31;81.70;102704.38;7405020;19;19933;-90
2023/09/03 01:25:21;;;;;;;8.43;6.70;;;;;;;15.27;81.52;102708.41;7408183;19;19919;-89
2023/09/03 01:28:07;;;;;;;8.73;5.60;;;;;;;15.21;81.53;102711.78;7407960;19;19946;-88
2023/09/03 01:30:39;;;;;;;7.95;5.85;;;;;;;15.20;81.07;102703.81;7409301;19;19922;-89
2023/09/03 01:33:08;;;;;;;9.27;5.80;;;;;;;15.17;81.24;102698.72;7407830;19;19918;-89
2023/09/03 01:35:37;;;;;;;8.52;5.75;;;;;;;15.14;81.33;102701.75;7405141;19;19914;-88
2023/09/03 01:38:27;;;;;;;10.23;5.82;;;;;;;15.12;81.53;102701.91;7405667;19;20468;-89
2023/09/03 01:40:57;;;;;;;9.70;6.03;;;;;;;15.17;81.07;102696.00;7405442;19;20953;-88
2023/09/03 01:43:26;;;;;;;11.98;6.80;;;;;;;15.18;81.41;102684.13;7408575;19;19951;-87
2023/09/03 01:46:03;;;;;;;7.68;6.25;;;;;;;15.16;81.77;102686.13;7409021;19;19918;-88
2023/09/03 01:48:46;;;;;;;10.90;6.60;;;;;;;15.16;81.98;102680.72;7410689;19;19914;-89
2023/09/03 01:51:25;;;;;;;7.80;6.25;;;;;;;15.16;81.97;102670.72;7407225;19;20341;-88
2023/09/03 01:54:03;;;;;;;9.95;6.68;;;;;;;15.14;81.71;102667.31;7406126;19;19926;-88
2023/09/03 01:56:37;;;;;;;8.10;6.10;;;;;;;15.16;81.69;102659.00;7407152;19;20024;-89
2023/09/03 01:59:14;;;;;;;7.68;5.72;;;;;;;15.15;82.01;102660.00;7406056;19;20340;-88
2023/09/03 02:01:46;;;;;;;8.60;5.20;;;;;;;15.14;82.07;102655.59;7406123;19;19918;-90
2023/09/03 02:04:15;;;;;;;7.80;6.13;;;;;;;15.12;82.02;102650.34;7404525;19;19943;-89
2023/09/03 02:06:47;;;;;;;9.93;5.80;;;;;;;15.08;81.86;102654.38;7406159;19;19922;-89
2023/09/03 02:09:16;;;;;;;8.70;5.85;;;;;;;15.04;82.07;102650.28;7404129;19;19932;-88
2023/09/03 02:11:44;;;;;;;8.65;6.38;;;;;;;15.05;81.89;102652.00;7404508;19;19990;-89
2023/09/03 02:14:13;;;;;;;8.18;6.10;;;;;;;15.03;82.13;102643.16;7404675;19;19961;-89
2023/09/03 02:16:41;;;;;;;11.38;6.53;;;;;;;14.99;82.31;102648.06;7404586;19;19942;-89
2023/09/03 02:19:33;;;;;;;8.73;6.63;;;;;;;14.99;81.75;102652.66;7402763;19;20388;-87
2023/09/03 02:22:01;;;;;;;6.68;5.72;;;;;;;15.01;81.23;102656.06;7410110;19;19922;-89
2023/09/03 02:24:51;;;;;;;10.45;6.15;;;;;;;15.07;81.23;102665.41;7415483;19;20358;-89
2023/09/03 02:27:40;;;;;;;6.72;5.70;;;;;;;15.05;80.75;102665.56;7415418;19;19941;-89
2023/09/03 02:30:10;;;;;;;7.00;5.63;;;;;;;15.05;81.04;102678.28;7415812;19;19910;-89
2023/09/03 02:32:38;;;;;;;8.30;5.57;;;;;;;15.03;81.16;102686.59;7416157;19;19925;-89
2023/09/03 02:35:10;;;;;;;7.40;5.60;;;;;;;15.01;81.37;102694.06;7412106;19;19918;-89
2023/09/03 02:37:38;;;;;;;9.18;6.30;;;;;;;14.96;81.38;102697.25;7411207;19;19919;-89
2023/09/03 02:40:09;;;;;;;9.65;6.18;;;;;;;14.92;82.18;102703.16;7410525;19;19919;-90
2023/09/03 02:42:37;;;;;;;9.57;5.82;;;;;;;14.91;81.90;102701.47;7410569;19;19922;-89
2023/09/03 02:45:07;;;;;;;9.10;6.03;;;;;;;14.94;82.33;102701.97;7410276;19;19946;-88
2023/09/03 02:47:35;;;;;;;7.68;5.78;;;;;;;14.94;82.09;102707.41;7410657;19;19922;-88
2023/09/03 02:50:05;;;;;;;8.63;6.60;;;;;;;14.93;82.24;102711.13;7409830;19;19942;-89
2023/09/03 02:52:34;;;;;;;10.70;6.28;;;;;;;14.88;81.85;102710.78;7411061;19;19943;-88
2023/09/03 02:55:22;;;;;;;8.43;5.72;;;;;;;14.84;82.34;102697.69;7408464;19;19949;-89
2023/09/03 02:57:51;;;;;;;10.25;6.10;;;;;;;14.83;82.82;102679.69;7408907;19;19959;-89
2023/09/03 03:00:20;;;;;;;11.23;5.90;;;;;;;14.80;82.13;102685.44;7409866;19;19914;-88
2023/09/03 03:02:49;;;;;;;11.02;6.57;;;;;;;14.79;82.18;102686.47;7410808;19;20004;-89
2023/09/03 03:05:17;;;;;;;9.27;6.53;;;;;;;14.74;82.58;102692.38;7410580;19;19934;-88
2023/09/03 03:07:49;;;;;;;12.38;7.05;;;;;;;14.68;82.84;102703.84;7409557;19;19925;-90
2023/09/03 03:10:17;;;;;;;10.27;6.47;;;;;;;14.67;82.69;102706.75;7409334;19;19926;-89
2023/09/03 03:12:47;;;;;;;7.57;6.18;;;;;;;14.69;82.68;102705.56;7409475;19;19922;-89
2023/09/03 03:15:15;;;;;;;8.77;6.25;;;;;;;14.68;82.65;102701.13;7408835;19;20549;-89
2023/09/03 03:18:04;;;;;;;8.40;6.05;;;;;;;14.65;82.67;102703.31;7409531;19;19952;-89
2023/09/03 03:20:33;;;;;;;7.90;5.57;;;;;;;14.61;82.49;102702.78;7409209;19;19931;-89
2023/09/03 03:23:04;;;;;;;8.60;6.22;;;;;;;14.60;82.97;102705.66;7410007;19;19918;-89
2023/09/03 03:25:55;;;;;;;9.80;5.95;;;;;;;14.54;82.88;102701.69;7408884;19;19922;-89
2023/09/03 03:28:24;;;;;;;8.75;6.53;;;;;;;14.51;82.86;102713.72;7410480;19;19938;-88
2023/09/03 03:30:52;;;;;;;10.57;7.10;;;;;;;14.50;82.68;102711.16;7409659;19;20503;-90
2023/09/03 03:33:21;;;;;;;10.45;7.38;;;;;;;14.51;82.88;102705.59;7408864;19;19922;-88
2023/09/03 03:35:49;;;;;;;10.13;6.50;;;;;;;14.51;82.43;102711.03;7408992;19;20356;-89
2023/09/03 03:38:21;;;;;;;9.68;6.25;;;;;;;14.46;82.36;102710.63;7410147;19;19922;-89
2023/09/03 03:40:49;;;;;;;10.10;7.40;;;;;;;14.40;82.90;102703.16;7409846;19;19911;-89
2023/09/03 03:43:18;;;;;;;9.73;6.50;;;;;;;14.35;83.40;102708.19;7409834;19;19919;-89
2023/09/03 03:45:46;;;;;;;8.10;6.32;;;;;;;14.31;83.33;102706.75;7408407;19;19938;-89
2023/09/03 03:48:35;;;;;;;10.07;5.82;;;;;;;14.25;83.71;102701.97;7408324;19;19956;-89
2023/09/03 03:51:06;;;;;;;8.55;6.15;;;;;;;14.26;83.65;102702.81;7409598;19;19922;-90
2023/09/03 03:53:37;;;;;;;7.72;5.63;;;;;;;14.24;83.45;102686.69;7410923;19;19930;-88
2023/09/03 03:56:26;;;;;;;7.97;5.63;;;;;;;14.21;83.87;102691.59;7407884;19;19979;-89
2023/09/03 03:58:55;;;;;;;7.50;5.85;;;;;;;14.21;83.70;102703.28;7409424;19;19957;-89
2023/09/03 04:01:25;;;;;;;8.25;6.53;;;;;;;14.21;83.65;102711.41;7410548;19;19922;-89
2023/09/03 04:03:55;;;;;;;8.63;6.70;;;;;;;14.20;83.67;102714.28;7411727;19;19925;-90
2023/09/03 04:06:27;;;;;;;8.95;5.82;;;;;;;14.15;83.66;102716.63;7413817;19;19922;-89
2023/09/03 04:08:58;;;;;;;7.28;5.55;;;;;;;14.16;83.30;102740.84;7411513;19;19911;-89
2023/09/03 04:11:28;;;;;;;7.75;5.70;;;;;;;14.22;83.05;102745.66;7410571;19;19942;-89
2023/09/03 04:13:57;;;;;;;7.95;6.22;;;;;;;14.24;83.24;102759.88;7410287;19;19923;-89
2023/09/03 04:16:26;;;;;;;8.63;6.15;;;;;;;14.24;83.11;102759.06;7415093;19;20246;-89
2023/09/03 04:19:15;;;;;;;9.10;6.40;;;;;;;14.24;83.31;102759.06;7410644;19;19935;-89
2023/09/03 04:21:43;;;;;;;6.88;5.32;;;;;;;14.23;83.52;102749.22;7409172;19;19934;-90
2023/09/03 04:24:15;;;;;;;11.00;6.65;;;;;;;14.24;83.14;102754.47;7410934;19;20268;-89
2023/09/03 04:26:43;;;;;;;7.80;5.88;;;;;;;14.24;83.56;102753.66;7412350;19;19922;-87
2023/09/03 04:29:12;;;;;;;7.80;5.30;;;;;;;14.26;83.54;102759.75;7412454;19;19918;-89
2023/09/03 04:31:41;;;;;;;7.03;5.20;;;;;;;14.27;83.24;102762.31;7408889;19;19949;-88
2023/09/03 04:34:09;;;;;;;11.48;5.82;;;;;;;14.26;83.40;102763.31;7406901;19;19941;-89
2023/09/03 04:36:38;;;;;;;6.78;5.38;;;;;;;14.23;82.94;102769.06;7407504;19;19927;-88
2023/09/03 04:39:08;;;;;;;8.32;5.50;;;;;;;14.21;83.34;102781.03;7408563;19;19918;-88
2023/09/03 04:41:39;;;;;;;7.65;5.85;;;;;;;14.21;83.13;102781.03;7409171;19;20332;-87
2023/09/03 04:44:09;;;;;;;7.25;5.35;;;;;;;14.17;83.44;102785.91;7406311;19;19935;-89
2023/09/03 04:46:40;;;;;;;8.80;5.47;;;;;;;14.16;83.36;102784.22;7407695;19;19946;-89
2023/09/03 04:49:09;;;;;;;7.22;5.38;;;;;;;14.16;83.40;102789.63;7408709;19;19919;-89
2023/09/03 04:51:38;;;;;;;9.45;5.60;;;;;;;14.16;83.37;102789.63;7407355;19;19933;-87
2023/09/03 04:54:07;;;;;;;6.32;5.38;;;;;;;14.14;83.28;102796.22;7408210;19;19958;-90
2023/09/03 04:56:58;;;;;;;9.57;5.70;;;;;;;14.09;83.32;102796.69;7405377;19;19925;-89
2023/09/03 04:59:27;;;;;;;7.85;5.22;;;;;;;14.07;83.46;102806.81;7408898;19;19923;-89
2023/09/03 05:02:15;;;;;;;5.80;4.90;;;;;;;14.01;83.53;102807.44;7406775;19;20318;-89
2023/09/03 05:04:46;;;;;;;6.07;4.88;;;;;;;14.01;84.02;102811.00;7408517;19;19953;-90
2023/09/03 05:07:34;;;;;;;7.53;4.82;;;;;;;14.01;84.15;102815.56;7406458;19;19925;-89
2023/09/03 05:10:03;;;;;;;6.90;5.32;;;;;;;14.01;83.98;102807.44;7408014;19;19946;-90
2023/09/03 05:12:35;;;;;;;7.40;5.70;;;;;;;13.99;84.36;102807.56;7408876;19;19923;-89
2023/09/03 05:15:04;;;;;;;8.00;5.70;;;;;;;13.97;84.66;102806.03;7412896;19;19938;-89
2023/09/03 05:17:32;;;;;;;7.78;5.18;;;;;;;13.96;84.70;102802.47;7416092;19;19922;-88
2023/09/03 05:20:01;;;;;;;7.28;5.75;;;;;;;13.94;84.62;102806.31;7410478;19;19926;-88
2023/09/03 05:22:30;;;;;;;6.68;5.45;;;;;;;13.92;84.84;102806.50;7413863;19;19942;-89
2023/09/03 05:25:19;;;;;;;8.38;5.10;;;;;;;13.96;84.96;102817.88;7411276;19;20356;-90
2023/09/03 05:27:50;;;;;;;9.13;5.88;;;;;;;13.97;85.03;102828.56;7408264;19;20249;-89
2023/09/03 05:30:19;;;;;;;9.43;5.80;;;;;;;13.97;84.89;102834.00;7407559;19;19918;-89
2023/09/03 05:32:48;;;;;;;8.45;6.05;;;;;;;13.98;84.86;102840.25;7407477;19;19936;-89
2023/09/03 05:35:17;;;;;;;7.90;5.75;;;;;;;14.00;85.15;102833.69;7412271;19;19926;-89
2023/09/03 05:37:45;;;;;;;9.05;5.65;;;;;;;14.04;84.78;102840.50;7409550;19;19918;-89
2023/09/03 05:40:14;;;;;;;8.93;5.57;;;;;;;14.07;84.84;102840.19;7407171;19;19954;-88
2023/09/03 05:42:43;;;;;;;9.25;6.05;;;;;;;14.11;85.00;102834.50;7405790;19;19927;-89
2023/09/03 05:45:15;;;;;;;8.07;5.70;;;;;;;14.13;84.93;102833.31;7405581;19;20345;-89
2023/09/03 05:47:43;;;;;;;7.47;5.57;;;;;;;14.16;84.92;102827.56;7405385;19;20576;-89
2023/09/03 05:50:12;;;;;;;9.10;5.35;;;;;;;14.23;84.63;102822.41;7406016;19;20404;-89
2023/09/03 05:52:41;;;;;;;8.98;6.15;;;;;;;14.28;84.83;102823.63;7404720;19;19918;-89
2023/09/03 05:55:10;;;;;;;9.13;5.82;;;;;;;14.30;84.71;102823.50;7406678;19;19946;-90
2023/09/03 05:57:40;;;;;;;9.13;5.65;;;;;;;14.30;84.86;102827.06;7409887;19;19926;-90
2023/09/03 06:00:09;;;;;;;9.02;5.53;;;;;;;14.33;85.00;102826.75;7411589;19;19918;-89
2023/09/03 06:02:41;;;;;;;8.63;6.03;;;;;;;14.38;84.58;102821.75;7410638;19;19934;-89
2023/09/03 06:05:11;;;;;;;6.43;5.20;;;;;;;14.46;85.08;102818.25;7410955;19;20372;-89
2023/09/03 06:07:39;;;;;;;5.97;4.82;;;;;;;14.53;84.84;102831.06;7410505;19;19919;-90
2023/09/03 06:10:09;;;;;;;6.75;4.60;;;;;;;14.56;84.48;102829.03;7411205;19;20005;-88
2023/09/03 06:12:38;;;;;;;6.78;5.05;;;;;;;14.59;84.89;102843.13;7409383;19;19940;-89
2023/09/03 06:15:08;;;;;;;7.15;4.88;;;;;;;14.63;85.17;102838.25;7411132;19;19918;-88
2023/09/03 06:17:36;;;;;;;7.20;4.88;;;;;;;14.65;84.93;102852.53;7410100;19;19933;-89
2023/09/03 06:20:10;;;;;;;6.38;5.07;;;;;;;14.68;85.06;102854.91;7410880;19;20335;-89
2023/09/03 06:22:39;;;;;;;7.28;5.10;;;;;;;14.69;84.82;102859.34;7410306;19;19926;-89
2023/09/03 06:25:08;;;;;;;6.88;4.57;;;;;;;14.73;85.17;102858.88;7410037;19;19930;-90
2023/09/03 06:27:37;;;;;;;6.70;4.90;;;;;;;14.76;85.47;102853.13;7411174;19;19923;-89
2023/09/03 06:30:06;;;;;;;7.38;5.20;;;;;;;14.83;85.20;102858.78;7410745;19;19943;-89
2023/09/03 06:32:55;;;;;;;6.68;4.40;;;;;;;14.88;84.97;102864.59;7408890;19;19943;-89
2023/09/03 06:35:26;;;;;;;6.43;4.82;;;;;;;14.95;85.10;102858.38;7411026;19;20335;-90
2023/09/03 06:37:55;;;;;;;5.97;4.32;;;;;;;14.99;85.10;102858.91;7409518;19;19923;-89
2023/09/03 06:40:24;;;;;;;9.00;4.47;;;;;;;15.03;85.07;102860.31;7411320;19;19926;-89
2023/09/03 06:42:53;;;;;;;6.43;4.30;;;;;;;15.08;85.19;102871.56;7410705;19;19934;-89
2023/09/03 06:45:22;;;;;;;6.93;4.55;;;;;;;15.15;85.75;102866.31;7410844;19;19922;-88
2023/09/03 06:47:51;;;;;;;6.07;4.25;;;;;;;15.20;85.22;102861.28;7412176;19;20462;-88
2023/09/03 06:50:19;;;;;;;7.18;4.88;;;;;;;15.24;85.43;102866.22;7413084;19;19927;-90
2023/09/03 06:52:51;;;;;;;6.60;4.35;;;;;;;15.27;85.48;102863.19;7414193;19;19961;-90
2023/09/03 06:55:40;;;;;;;6.90;4.18;;;;;;;15.30;84.91;102857.47;7408718;19;19922;-89
2023/09/03 06:58:09;;;;;;;7.35;3.72;;;;;;;15.36;84.63;102848.66;7409722;19;19926;-88
2023/09/03 07:00:37;;;;;;;5.43;3.60;;;;;;;15.42;84.62;102861.63;7410737;19;19961;-89
2023/09/03 07:03:06;;;;;;;6.63;3.90;;;;;;;15.50;84.91;102863.56;7410735;19;20364;-89
2023/09/03 07:05:35;;;;;;;7.78;3.33;;;;;;;15.56;84.62;102870.22;7410626;19;19949;-88
2023/09/03 07:08:06;;;;;;;6.78;4.05;;;;;;;15.62;84.39;102864.97;7409390;19;20477;-89
2023/09/03 07:11:01;;;;;;;6.28;3.30;;;;;;;15.64;84.44;102865.69;7409931;19;19925;-89
2023/09/03 07:13:29;;;;;;;4.18;3.20;;;;;;;15.73;84.30;102872.00;7412347;19;19919;-89
2023/09/03 07:15:58;;;;;;;7.07;3.72;;;;;;;15.80;84.48;102881.19;7412428;19;19934;-89
2023/09/03 07:18:27;;;;;;;4.60;3.22;;;;;;;15.87;83.46;102885.84;7413525;19;19923;-88
2023/09/03 07:21:05;;;;;;;5.18;3.28;;;;;;;15.93;83.06;102887.03;7421260;19;19914;-89
2023/09/03 07:23:37;;;;;;;6.43;3.40;;;;;;;16.06;82.96;102886.59;7419636;19;19915;-88
2023/09/03 07:26:08;;;;;;;5.07;3.10;;;;;;;16.16;83.24;102888.16;7418152;19;19930;-89
2023/09/03 07:28:37;;;;;;;4.82;3.40;;;;;;;16.27;82.04;102889.72;7411484;19;19919;-89
2023/09/03 07:31:05;;;;;;;6.45;2.90;;;;;;;16.37;82.49;102885.00;7416433;19;19926;-90
2023/09/03 07:33:34;;;;;;;3.72;2.60;;;;;;;16.46;81.81;102891.31;7409984;19;19940;-89
2023/09/03 07:36:23;;;;;;;3.28;2.50;;;;;;;16.53;81.50;102892.34;7408486;19;19942;-88
2023/09/03 07:38:54;;;;;;;4.32;2.90;;;;;;;16.56;81.44;102890.16;7412389;19;19942;-89
2023/09/03 07:41:23;;;;;;;5.07;2.38;;;;;;;16.61;81.16;102887.78;7409816;19;19922;-89
2023/09/03 07:43:52;;;;;;;4.10;2.55;;;;;;;16.67;81.22;102886.28;7411022;19;20352;-88
2023/09/03 07:46:21;;;;;;;4.00;2.22;;;;;;;16.74;80.46;102893.59;7412021;19;19923;-89
2023/09/03 07:48:50;;;;;;;4.70;2.63;;;;;;;16.79;80.95;102887.66;7412703;19;19946;-88
2023/09/03 07:51:19;;;;;;;2.85;1.92;;;;;;;16.85;80.28;102889.72;7413445;19;19922;-89
2023/09/03 07:53:49;;;;;;;3.20;2.08;;;;;;;16.87;79.71;102895.81;7409030;19;20321;-87
2023/09/03 07:56:40;;;;;;;3.47;2.50;;;;;;;16.92;79.93;102903.47;7408545;19;19915;-88
2023/09/03 07:59:09;;;;;;;6.22;2.10;;;;;;;16.97;79.42;102906.56;7411291;19;19917;-89
2023/09/03 08:01:38;;;;;;;3.97;2.05;;;;;;;17.01;79.76;102918.81;7411019;19;19921;-89
2023/09/03 08:04:07;;;;;;;3.15;1.90;;;;;;;17.07;79.49;102916.28;7415826;19;19918;-88
2023/09/03 08:06:35;;;;;;;5.05;2.47;;;;;;;17.15;78.93;102923.59;7418301;19;19918;-90
2023/09/03 08:09:05;;;;;;;5.40;2.15;;;;;;;17.20;78.90;102927.50;7417630;19;19946;-89
2023/09/03 08:11:35;;;;;;;3.28;2.30;;;;;;;17.28;78.61;102926.66;7415727;19;19918;-88
2023/09/03 08:14:08;;;;;;;5.70;2.58;;;;;;;17.35;77.72;102934.97;7417137;19;19926;-88
2023/09/03 08:16:36;;;;;;;3.33;2.10;;;;;;;17.41;78.05;102928.84;7410836;19;19925;-89
2023/09/03 08:19:05;;;;;;;3.80;1.77;;;;;;;17.48;77.26;102929.84;7403763;19;19938;-88
2023/09/03 08:21:34;;;;;;;4.88;2.30;;;;;;;17.51;76.87;102930.38;7410296;19;19918;-88
2023/09/03 08:24:02;;;;;;;4.82;2.75;;;;;;;17.53;76.62;102924.75;7408419;19;20336;-89
2023/09/03 08:26:31;;;;;;;2.85;1.90;;;;;;;17.60;76.94;102928.53;7411046;19;19929;-89
2023/09/03 08:28:59;;;;;;;3.03;1.85;;;;;;;17.63;76.13;102923.56;7410902;19;19934;-88
2023/09/03 08:31:51;;;;;;;2.20;1.85;;;;;;;17.66;75.36;102925.09;7408363;19;19948;-88
2023/09/03 08:34:39;;;;;;;3.40;1.90;;;;;;;17.68;75.48;102931.22;7407936;19;19929;-89
2023/09/03 08:37:08;;;;;;;4.30;1.58;;;;;;;17.70;75.22;102929.16;7410493;19;19935;-88
2023/09/03 08:39:36;;;;;;;4.40;2.25;;;;;;;17.73;75.11;102931.56;7409306;19;19936;-88
2023/09/03 08:42:06;;;;;;;4.75;2.58;;;;;;;17.80;75.36;102938.03;7410218;19;19906;-89
2023/09/03 08:44:39;;;;;;;2.47;2.00;;;;;;;17.90;74.09;102924.19;7410076;19;19919;-89
2023/09/03 08:47:14;;;;;;;4.57;2.42;;;;;;;17.94;73.74;102937.31;7408487;19;19930;-90
2023/09/03 08:49:43;;;;;;;6.10;2.25;;;;;;;18.00;74.41;102928.41;7407939;19;19922;-89
2023/09/03 08:52:12;;;;;;;3.10;2.35;;;;;;;18.02;73.55;102934.56;7407169;19;19922;-89
2023/09/03 08:54:42;;;;;;;7.47;2.38;;;;;;;18.05;74.12;102933.34;7408894;19;20666;-88
2023/09/03 08:57:34;;;;;;;4.50;2.35;;;;;;;18.16;73.41;102937.56;7407112;19;19917;-88
2023/09/03 09:00:05;;;;;;;5.80;2.20;;;;;;;18.23;73.29;102947.59;7408932;19;19919;-89
2023/09/03 09:02:37;;;;;;;3.47;2.30;;;;;;;18.31;72.30;102947.56;7409264;19;19922;-88
2023/09/03 09:05:26;;;;;;;5.20;2.17;;;;;;;18.35;72.80;102948.91;7407281;19;19970;-89
2023/09/03 09:07:55;;;;;;;4.40;1.80;;;;;;;18.41;72.89;102945.47;7407664;19;20358;-88
2023/09/03 09:10:28;;;;;;;3.97;1.92;;;;;;;18.53;72.29;102954.13;7407065;19;19923;-90
2023/09/03 09:13:03;;;;;;;3.25;2.05;;;;;;;18.55;71.36;102958.38;7408278;19;20427;-88
2023/09/03 09:15:31;;;;;;;3.72;1.98;;;;;;;18.64;71.29;102955.63;7410768;19;20370;-89
2023/09/03 09:18:02;;;;;;;1.95;1.60;;;;;;;18.75;70.13;102956.06;7409028;19;20289;-89
2023/09/03 09:20:37;;;;;;;5.50;1.70;;;;;;;18.87;69.91;102959.22;7409364;19;19915;-87
2023/09/03 09:23:07;;;;;;;3.60;1.65;;;;;;;18.93;68.34;102959.34;7411978;19;19941;-89
2023/09/03 09:25:37;;;;;;;2.72;1.45;;;;;;;19.00;69.73;102965.78;7412004;19;19930;-90
2023/09/03 09:28:15;;;;;;;4.78;1.70;;;;;;;19.00;68.20;102967.66;7408603;19;19918;-87
2023/09/03 09:30:58;;;;;;;2.30;1.65;;;;;;;19.02;68.20;102979.28;7408292;19;20333;-88
2023/09/03 09:33:29;;;;;;;3.80;1.92;;;;;;;19.03;68.99;102981.78;7408196;19;19975;-88
2023/09/03 09:36:11;;;;;;;5.20;1.90;;;;;;;19.07;67.02;102976.00;7407731;19;20348;-88
2023/09/03 09:38:40;;;;;;;5.97;1.70;;;;;;;19.18;68.26;102981.03;7406324;19;19941;-89
2023/09/03 09:41:25;;;;;;;4.25;2.03;;;;;;;19.12;66.91;102982.59;7406069;19;19914;-89
2023/09/03 09:43:54;;;;;;;4.35;1.75;;;;;;;19.23;68.24;102975.88;7405687;19;19927;-89
2023/09/03 09:46:30;;;;;;;4.63;1.55;;;;;;;19.23;65.97;102984.91;7407156;19;20344;-89
2023/09/03 09:49:03;;;;;;;2.53;1.27;;;;;;;19.29;66.26;102988.78;7406323;19;19942;-88
2023/09/03 09:51:33;;;;;;;2.63;1.17;;;;;;;19.36;67.31;102979.69;7408042;19;19918;-89
2023/09/03 09:54:03;;;;;;;1.30;1.20;;;;;;;19.48;66.87;102974.66;7407574;19;19942;-88
2023/09/03 09:56:34;;;;;;;3.65;1.67;;;;;;;19.56;67.21;102984.66;7405707;19;19919;-88
2023/09/03 09:59:03;;;;;;;6.00;1.88;;;;;;;19.61;66.34;102977.59;7405698;19;20262;-88
2023/09/03 10:01:52;;;;;;;3.17;1.30;;;;;;;19.62;66.07;102976.59;7406044;19;19921;-89
2023/09/03 10:04:30;;;;;;;4.60;1.45;;;;;;;19.62;64.58;102978.47;7406413;19;19918;-89
2023/09/03 10:06:59;;;;;;;3.03;1.42;;;;;;;19.72;65.52;102977.16;7406177;19;19925;-89
2023/09/03 10:09:27;;;;;;;4.88;2.00;;;;;;;19.78;65.12;102976.41;7405409;19;19918;-88
2023/09/03 10:11:57;;;;;;;4.43;1.55;;;;;;;19.79;65.29;102974.53;7406165;19;19918;-88
2023/09/03 10:14:27;;;;;;;3.17;1.58;;;;;;;19.87;64.37;102972.56;7405391;19;19919;-90
2023/09/03 10:17:01;;;;;;;5.20;1.92;;;;;;;19.93;64.65;102971.78;7406199;19;19926;-88
2023/09/03 10:19:42;;;;;;;2.63;1.80;;;;;;;19.87;63.37;102979.91;7406450;19;19938;-87
2023/09/03 10:22:16;;;;;;;3.10;1.70;;;;;;;19.92;63.57;102977.47;7407742;19;19921;-88
2023/09/03 10:24:47;;;;;;;2.47;1.50;;;;;;;19.99;64.46;102974.81;7407102;19;19918;-88
2023/09/03 10:27:20;;;;;;;2.35;1.48;;;;;;;20.11;63.40;102974.16;7408245;19;19930;-87
2023/09/03 10:29:50;;;;;;;2.85;1.50;;;;;;;20.24;63.85;102979.81;7408405;19;19919;-88
2023/09/03 10:32:21;;;;;;;1.90;1.58;;;;;;;20.38;63.01;102987.22;7408288;19;19945;-87
2023/09/03 10:34:53;;;;;;;3.65;1.58;;;;;;;20.52;62.74;102988.22;7408883;19;19926;-87
2023/09/03 10:37:22;;;;;;;3.30;1.02;;;;;;;20.64;62.47;103000.38;7408467;19;19919;-88
2023/09/03 10:39:51;;;;;;;2.97;1.20;;;;;;;20.75;61.43;102996.31;7404581;19;19947;-88
2023/09/03 10:42:31;;;;;;;2.00;1.10;;;;;;;20.64;60.42;103005.00;7406694;19;19926;-87
2023/09/03 10:45:02;;;;;;;2.83;1.23;;;;;;;20.80;60.13;102999.31;7410075;19;19914;-88
2023/09/03 10:47:31;;;;;;;1.58;1.17;;;;;;;21.00;60.25;103008.63;7410905;19;19922;-88
2023/09/03 10:50:43;;;;;;;2.70;1.17;;;;;;;20.76;58.42;103000.72;7408401;19;19978;-88
2023/09/03 10:53:12;;;;;;;1.75;0.95;;;;;;;20.80;59.18;103008.38;7410609;19;20363;-88
2023/09/03 10:55:41;;;;;;;1.23;0.80;;;;;;;20.81;59.31;103001.88;7410425;19;19918;-89
2023/09/03 10:58:32;;;;;;;1.58;0.70;;;;;;;20.84;57.23;103000.63;7410801;19;19918;-89
2023/09/03 11:01:21;;;;;;;3.40;0.98;;;;;;;20.94;58.30;103003.06;7410751;19;19920;-88
2023/09/03 11:03:52;;;;;;;1.13;0.85;;;;;;;21.04;60.27;103006.34;7408965;19;19915;-88
2023/09/03 11:06:24;;;;;;;2.72;1.17;;;;;;;21.09;58.33;103001.97;7410949;19;20391;-88
2023/09/03 11:09:22;;;;;;;3.53;1.10;;;;;;;21.18;55.65;102998.06;7408567;19;19911;-89
2023/09/03 11:11:51;;;;;;;1.70;1.05;;;;;;;21.25;58.01;103003.63;7409530;19;19914;-88
2023/09/03 11:14:21;;;;;;;2.10;1.10;;;;;;;21.20;57.62;103001.47;7411272;19;19950;-87
2023/09/03 11:16:49;;;;;;;1.52;0.93;;;;;;;21.22;57.86;102993.94;7409545;19;19922;-88
2023/09/03 11:19:18;;;;;;;3.08;1.27;;;;;;;21.27;57.43;102991.41;7409512;19;19918;-87
2023/09/03 11:21:49;;;;;;;1.58;0.93;;;;;;;21.36;56.93;102994.88;7409968;19;19918;-88
2023/09/03 11:24:18;;;;;;;1.30;0.82;;;;;;;21.44;56.53;102993.91;7409520;19;20262;-88
2023/09/03 11:27:08;;;;;;;1.77;1.02;;;;;;;21.52;56.65;102996.50;7410457;19;19919;-87
2023/09/03 11:29:37;;;;;;;2.13;1.30;;;;;;;21.62;57.32;102997.00;7409490;19;19918;-89
2023/09/03 11:32:06;;;;;;;1.50;0.75;;;;;;;21.74;57.04;102996.25;7409688;19;19942;-88
2023/09/03 11:34:35;;;;;;;1.55;1.08;;;;;;;21.82;55.78;102999.91;7408459;19;20596;-88
2023/09/03 11:37:06;;;;;;;1.15;0.88;;;;;;;21.92;55.56;103008.63;7408663;19;19931;-88
2023/09/03 11:39:35;;;;;;;;;;;;;;;22.01;53.43;103007.47;7411637;19;19930;-88
2023/09/03 11:42:03;;;;;;;5.30;1.10;;;;;;;22.23;54.98;103008.22;7408229;19;19915;-88
2023/09/03 11:44:32;;;;;;;1.42;0.82;;;;;;;22.33;54.93;103009.56;7407862;19;19918;-88
2023/09/03 11:47:04;;;;;;;3.35;1.13;;;;;;;22.47;54.67;103000.34;7410982;19;20372;-88
2023/09/03 11:49:52;;;;;;;2.22;1.40;;;;;;;22.60;54.26;102985.81;7407252;19;19974;-88